Time;durP1;ratioP1;P1;durP2;ratioP2;P2;SDS_P1;SDS_P2;PMS_P1;PMS_P2;Temp;Humidity;BMP_temperature;BMP_pressure;BME280_temperature;BME280_humidity;BME280_pressure;Samples;Min_cycle;Max_cycle;Signal;HPM_P1;HPM_P2
2022/12/15 00:38:49;;;;;;;39.37;16.13;;;1.80;52.60;;;;;;4891390;29;20451;-86
2022/12/15 00:41:18;;;;;;;38.97;17.27;;;1.80;52.50;;;;;;4933668;28;20543;-85
2022/12/15 00:43:45;;;;;;;32.50;15.70;;;1.70;52.70;;;;;;4906826;29;20601;-85
2022/12/15 00:48:57;;;;;;;30.00;16.17;;;1.70;53.30;;;;;;4911286;29;20447;-85
2022/12/15 01:21:39;;;;;;;20.70;13.67;;;1.30;55.20;;;;;;4893928;29;20450;-85
2022/12/15 01:24:08;;;;;;;21.10;13.10;;;1.30;55.70;;;;;;4905611;29;20471;-86
2022/12/15 01:26:35;;;;;;;34.73;13.80;;;1.30;55.00;;;;;;4901539;29;20816;-86
2022/12/15 01:29:02;;;;;;;25.50;13.67;;;1.40;55.00;;;;;;4925237;29;20459;-87
2022/12/15 01:31:29;;;;;;;30.60;13.80;;;1.60;54.70;;;;;;4876847;29;20455;-85
2022/12/15 01:33:56;;;;;;;25.40;13.87;;;1.70;54.50;;;;;;4916712;29;20475;-83
2022/12/15 01:36:23;;;;;;;29.27;15.87;;;1.80;54.00;;;;;;4906124;29;20468;-85
2022/12/15 01:38:50;;;;;;;28.33;14.30;;;1.60;54.20;;;;;;4901067;29;21105;-86
2022/12/15 01:41:17;;;;;;;35.50;15.10;;;1.70;53.80;;;;;;4881617;29;20903;-86
2022/12/15 01:43:45;;;;;;;31.83;15.07;;;1.80;53.70;;;;;;4872346;29;21445;-87
2022/12/15 01:46:15;;;;;;;25.87;13.70;;;1.80;53.70;;;;;;4889047;29;20444;-86
2022/12/15 01:48:46;;;;;;;25.50;13.10;;;1.80;53.70;;;;;;4914435;29;21430;-83
2022/12/15 01:51:25;;;;;;;30.50;15.50;;;1.90;53.40;;;;;;4925806;29;20452;-85
2022/12/15 01:53:58;;;;;;;36.43;16.17;;;2.00;53.10;;;;;;4895404;29;20514;-85
2022/12/15 01:56:29;;;;;;;34.23;14.80;;;2.00;52.80;;;;;;4909145;29;20565;-83
2022/12/15 01:59:01;;;;;;;28.07;14.30;;;1.90;52.60;;;;;;4904183;29;20451;-85
2022/12/15 02:01:28;;;;;;;42.43;15.90;;;1.90;52.90;;;;;;4915328;29;20463;-83
2022/12/15 02:03:56;;;;;;;28.07;15.97;;;1.70;53.50;;;;;;4879559;29;20474;-86
2022/12/15 02:06:25;;;;;;;30.83;15.07;;;1.60;54.00;;;;;;4889683;29;20459;-84
2022/12/15 02:08:55;;;;;;;24.30;12.97;;;1.80;53.70;;;;;;4879464;29;20456;-83
2022/12/15 02:11:53;;;;;;;39.00;16.20;;;1.90;53.40;;;;;;4931698;29;20456;-85
2022/12/15 02:14:28;;;;;;;42.80;15.60;;;1.90;53.00;;;;;;4868655;29;20466;-86
2022/12/15 02:17:06;;;;;;;33.50;15.83;;;1.70;53.50;;;;;;4915904;29;21007;-85
2022/12/15 02:20:10;;;;;;;27.63;13.93;;;1.80;53.80;;;;;;4887419;29;20456;-86
2022/12/15 02:22:51;;;;;;;27.30;14.07;;;1.90;53.60;;;;;;4916432;29;20548;-86
2022/12/15 02:25:37;;;;;;;27.40;13.83;;;1.70;53.80;;;;;;4908760;29;20451;-85
2022/12/15 02:28:10;;;;;;;22.67;14.37;;;1.60;53.90;;;;;;4903197;29;20452;-86
2022/12/15 02:31:48;;;;;;;30.77;15.20;;;1.60;54.20;;;;;;4899653;29;20458;-85
2022/12/15 02:33:40;;;;;;;27.90;14.70;;;1.60;54.20;;;;;;4902792;29;20475;-85
2022/12/15 02:36:16;;;;;;;31.23;15.30;;;1.60;53.80;;;;;;4888245;29;20471;-85
2022/12/15 02:38:43;;;;;;;23.63;13.33;;;1.70;54.00;;;;;;4901818;29;21009;-85
2022/12/15 02:41:32;;;;;;;22.93;13.60;;;1.70;53.70;;;;;;4910187;29;20462;-86
2022/12/15 02:44:00;;;;;;;26.33;12.80;;;1.90;53.40;;;;;;4878483;29;21009;-85
2022/12/15 02:46:36;;;;;;;22.23;12.83;;;1.80;53.00;;;;;;4893174;29;20451;-84
2022/12/15 02:49:11;;;;;;;21.43;12.90;;;1.90;53.00;;;;;;4876795;29;20991;-85
2022/12/15 02:51:49;;;;;;;26.30;12.37;;;1.60;52.80;;;;;;4932680;29;20493;-85
2022/12/15 02:54:36;;;;;;;28.70;14.57;;;1.70;53.40;;;;;;4872753;29;20839;-86
2022/12/15 02:57:10;;;;;;;26.93;12.90;;;1.80;53.20;;;;;;4886163;29;20472;-87
2022/12/15 02:59:43;;;;;;;40.60;16.40;;;1.80;53.40;;;;;;4904283;29;20817;-86
2022/12/15 03:02:13;;;;;;;28.33;12.53;;;1.80;53.50;;;;;;4915494;29;20459;-85
2022/12/15 03:04:44;;;;;;;27.97;14.10;;;2.00;53.20;;;;;;4914787;29;20467;-84
2022/12/15 03:07:11;;;;;;;21.67;14.27;;;1.70;52.90;;;;;;4892603;29;20444;-86
2022/12/15 03:09:38;;;;;;;21.40;12.70;;;1.80;53.20;;;;;;4899621;29;20640;-86
2022/12/15 03:12:06;;;;;;;27.30;13.50;;;1.80;52.90;;;;;;4917112;29;20499;-87
2022/12/15 03:14:33;;;;;;;22.73;13.53;;;1.80;53.30;;;;;;4897834;29;20493;-85
2022/12/15 03:17:00;;;;;;;37.17;15.83;;;1.50;53.70;;;;;;4892340;29;20502;-86
2022/12/15 03:19:28;;;;;;;20.27;11.73;;;1.50;54.20;;;;;;4877191;29;20561;-85
2022/12/15 03:21:57;;;;;;;25.07;13.83;;;1.60;54.30;;;;;;4872738;29;20490;-85
2022/12/15 03:24:24;;;;;;;23.03;12.70;;;1.70;54.10;;;;;;4897642;29;20566;-85
2022/12/15 03:26:50;;;;;;;26.47;13.30;;;1.80;53.50;;;;;;4914232;29;20828;-85
2022/12/15 03:29:18;;;;;;;24.10;12.07;;;1.90;53.50;;;;;;4908555;29;20475;-85
2022/12/15 03:31:45;;;;;;;31.70;16.17;;;1.80;53.10;;;;;;4899220;29;20451;-86
2022/12/15 03:34:12;;;;;;;33.80;15.00;;;1.80;53.20;;;;;;4900427;29;20479;-85
2022/12/15 03:36:40;;;;;;;25.33;12.87;;;1.80;53.10;;;;;;4914029;29;20482;-86
2022/12/15 03:39:08;;;;;;;35.60;13.03;;;1.90;53.10;;;;;;4915935;29;20448;-85
2022/12/15 03:41:35;;;;;;;28.87;13.27;;;1.80;52.50;;;;;;4864137;29;20455;-85
2022/12/15 03:44:02;;;;;;;24.80;12.80;;;1.70;52.90;;;;;;4900494;29;20859;-86
2022/12/15 03:46:29;;;;;;;23.60;12.30;;;1.70;53.10;;;;;;4890641;29;20447;-83
2022/12/15 03:48:56;;;;;;;24.33;13.43;;;1.80;53.00;;;;;;4931567;29;20459;-85
2022/12/15 03:51:23;;;;;;;27.20;13.77;;;1.90;52.80;;;;;;4918171;29;20455;-86
2022/12/15 03:53:52;;;;;;;29.07;13.57;;;1.70;53.20;;;;;;4930481;29;20826;-85
2022/12/15 03:56:19;;;;;;;24.30;13.23;;;1.50;54.00;;;;;;4913963;29;20481;-85
2022/12/15 03:58:46;;;;;;;27.83;14.57;;;1.70;54.10;;;;;;4899179;29;20454;-85
2022/12/15 04:01:23;;;;;;;20.43;11.70;;;1.90;53.70;;;;;;4876635;29;20463;-86
2022/12/15 04:03:50;;;;;;;36.73;13.30;;;2.00;53.60;;;;;;4887538;29;20506;-85
2022/12/15 04:06:17;;;;;;;28.80;15.77;;;2.10;53.40;;;;;;4881368;29;20972;-85
2022/12/15 04:08:44;;;;;;;28.70;14.77;;;2.10;53.00;;;;;;4909847;29;20518;-84
2022/12/15 04:11:12;;;;;;;32.60;15.10;;;2.10;53.00;;;;;;4895530;29;21065;-86
2022/12/15 04:13:39;;;;;;;36.77;16.23;;;2.10;53.00;;;;;;4886393;29;20911;-86
2022/12/15 04:16:07;;;;;;;27.40;13.93;;;2.00;53.50;;;;;;4891134;29;20460;-85
2022/12/15 04:18:34;;;;;;;33.80;15.00;;;1.90;53.80;;;;;;4918033;29;20555;-85
2022/12/15 04:21:00;;;;;;;32.20;14.67;;;2.10;53.30;;;;;;4911654;29;20456;-85
2022/12/15 04:23:27;;;;;;;34.40;16.80;;;2.20;52.60;;;;;;4910924;29;20521;-86
2022/12/15 05:32:04;;;;;;;26.07;14.37;;;1.60;52.40;;;;;;4910012;29;20452;-85
2022/12/15 05:34:34;;;;;;;32.83;13.17;;;1.50;52.50;;;;;;4893821;29;20562;-86
2022/12/15 05:37:03;;;;;;;37.73;14.00;;;1.60;52.40;;;;;;4909637;29;20486;-85
2022/12/15 05:39:30;;;;;;;39.03;17.33;;;1.70;52.40;;;;;;4916722;29;20455;-85
2022/12/15 05:41:57;;;;;;;35.37;17.07;;;1.70;52.20;;;;;;4909473;29;20455;-85
2022/12/15 05:44:25;;;;;;;26.10;11.27;;;1.80;52.00;;;;;;4925686;29;20479;-84
2022/12/15 05:46:53;;;;;;;27.60;14.27;;;1.80;51.40;;;;;;4908830;29;20462;-82
2022/12/15 05:49:22;;;;;;;30.87;16.07;;;1.40;52.00;;;;;;4893655;29;20460;-85
2022/12/15 05:51:50;;;;;;;34.53;16.70;;;1.40;52.30;;;;;;4893132;29;20580;-86
2022/12/15 05:54:18;;;;;;;26.47;13.80;;;1.50;52.30;;;;;;4905090;29;20846;-88
2022/12/15 05:56:46;;;;;;;25.83;11.93;;;1.20;52.00;;;;;;4932412;28;20483;-86
2022/12/15 05:59:15;;;;;;;22.63;13.60;;;1.10;52.60;;;;;;4901138;29;20463;-85
2022/12/15 06:01:42;;;;;;;27.50;15.60;;;1.20;53.00;;;;;;4924409;29;20454;-86
2022/12/15 06:04:10;;;;;;;25.37;12.40;;;1.30;52.90;;;;;;4916085;29;20489;-85
2022/12/15 06:06:37;;;;;;;35.90;14.87;;;1.30;52.40;;;;;;4888412;29;20443;-86
2022/12/15 06:09:06;;;;;;;25.10;14.53;;;1.30;52.20;;;;;;4878403;29;20463;-85
2022/12/15 06:11:33;;;;;;;22.60;13.00;;;1.30;52.10;;;;;;4931769;28;21157;-86
2022/12/15 06:14:00;;;;;;;31.67;16.17;;;1.30;52.10;;;;;;4914927;29;20475;-86
2022/12/15 06:16:27;;;;;;;35.87;16.17;;;1.20;52.00;;;;;;4915963;29;21071;-85
2022/12/15 06:18:57;;;;;;;25.87;14.30;;;1.30;51.90;;;;;;4903825;29;20466;-86
2022/12/15 06:21:27;;;;;;;30.63;13.73;;;1.30;51.60;;;;;;4928743;28;20990;-85
2022/12/15 06:23:56;;;;;;;30.40;15.40;;;1.30;51.50;;;;;;4889897;29;21417;-86
2022/12/15 06:26:26;;;;;;;24.47;12.40;;;1.30;51.30;;;;;;4916761;29;20460;-85
2022/12/15 06:28:55;;;;;;;25.67;13.27;;;1.40;51.20;;;;;;4884494;29;20447;-85
2022/12/15 06:31:24;;;;;;;34.80;17.70;;;1.40;50.70;;;;;;4918990;29;20459;-85
2022/12/15 06:33:51;;;;;;;33.40;17.60;;;1.20;50.70;;;;;;4887955;29;21021;-86
2022/12/15 06:36:19;;;;;;;31.80;16.00;;;1.20;50.70;;;;;;4886196;29;20798;-85
2022/12/15 06:38:46;;;;;;;25.20;14.63;;;1.20;50.80;;;;;;4916137;29;20561;-86
2022/12/15 06:41:15;;;;;;;29.50;14.60;;;1.00;50.10;;;;;;4902467;29;20460;-86
2022/12/15 06:43:48;;;;;;;33.17;17.87;;;0.70;50.20;;;;;;4930347;28;20474;-85
2022/12/15 06:46:15;;;;;;;29.40;15.17;;;0.40;50.90;;;;;;4916375;29;20537;-86
2022/12/15 06:48:43;;;;;;;26.73;14.63;;;0.50;51.40;;;;;;4902419;29;20456;-84
2022/12/15 06:51:12;;;;;;;31.00;13.67;;;0.40;51.20;;;;;;4910243;29;20460;-85
2022/12/15 06:53:40;;;;;;;22.40;12.80;;;0.40;51.20;;;;;;4917399;29;20526;-85
2022/12/15 06:56:14;;;;;;;27.23;12.57;;;0.40;51.20;;;;;;4908182;29;20555;-84
2022/12/15 06:58:43;;;;;;;26.87;14.03;;;0.40;51.30;;;;;;4891787;29;20567;-84
2022/12/15 07:01:11;;;;;;;30.00;13.50;;;0.40;51.00;;;;;;4918167;29;20444;-88
2022/12/15 07:03:38;;;;;;;27.10;13.70;;;0.30;50.70;;;;;;4898391;29;20842;-85
2022/12/15 07:06:07;;;;;;;22.20;12.40;;;-0.10;51.90;;;;;;4886039;29;20455;-86
2022/12/15 07:08:34;;;;;;;19.13;9.70;;;-0.10;52.40;;;;;;4878791;29;20823;-87
2022/12/15 07:11:03;;;;;;;17.70;9.93;;;-0.10;52.00;;;;;;4914094;29;20460;-86
2022/12/15 07:13:31;;;;;;;23.53;12.33;;;-0.20;52.10;;;;;;4916923;29;20975;-86
2022/12/15 07:16:00;;;;;;;33.47;16.43;;;-0.10;52.30;;;;;;4908188;29;20447;-86
2022/12/15 07:18:29;;;;;;;22.90;11.07;;;0.00;51.70;;;;;;4917865;29;20483;-86
2022/12/15 07:20:56;;;;;;;33.30;13.73;;;-0.20;51.50;;;;;;4901523;29;20525;-86
2022/12/15 07:23:23;;;;;;;27.60;14.60;;;-0.70;52.10;;;;;;4911609;29;20844;-86
2022/12/15 07:25:50;;;;;;;22.30;12.67;;;-1.00;52.60;;;;;;4889559;29;20851;-86
2022/12/15 07:28:17;;;;;;;17.27;9.27;;;-1.10;53.10;;;;;;4900474;29;20450;-86
2022/12/15 07:30:44;;;;;;;26.30;13.90;;;-0.90;52.90;;;;;;4927660;29;20584;-84
2022/12/15 07:33:12;;;;;;;27.93;13.97;;;-0.90;53.20;;;;;;4886794;29;20493;-86
2022/12/15 07:35:39;;;;;;;25.23;15.03;;;-0.80;52.80;;;;;;4892019;29;20477;-87
2022/12/15 07:38:07;;;;;;;23.57;15.03;;;-0.60;52.60;;;;;;4888530;29;20486;-85
2022/12/15 07:40:34;;;;;;;33.27;17.33;;;-0.40;52.10;;;;;;4908083;29;20878;-86
2022/12/15 07:43:01;;;;;;;33.70;16.23;;;-0.30;51.80;;;;;;4885802;29;20564;-87
2022/12/15 07:45:28;;;;;;;39.17;16.47;;;-0.30;51.70;;;;;;4922755;29;20884;-85
2022/12/15 07:47:55;;;;;;;33.93;16.57;;;-0.20;51.30;;;;;;4889805;29;20456;-86
2022/12/15 07:50:24;;;;;;;41.13;19.30;;;-0.10;51.10;;;;;;4916901;29;20456;-86
2022/12/15 07:52:51;;;;;;;39.07;22.23;;;-0.10;51.20;;;;;;4876779;29;20460;-85
2022/12/15 07:55:18;;;;;;;48.93;24.50;;;0.00;51.10;;;;;;4916238;29;20457;-86
2022/12/15 07:57:47;;;;;;;46.13;20.23;;;0.20;50.80;;;;;;4875803;29;20983;-85
2022/12/15 08:00:16;;;;;;;42.00;19.20;;;0.20;50.40;;;;;;4923259;29;20458;-87
2022/12/15 08:02:43;;;;;;;40.73;17.70;;;0.20;50.60;;;;;;4919330;29;20525;-85
2022/12/15 08:05:10;;;;;;;29.83;13.30;;;0.30;50.10;;;;;;4918222;29;20987;-86
2022/12/15 08:07:38;;;;;;;25.83;15.80;;;0.20;50.30;;;;;;4898217;29;20447;-86
2022/12/15 08:10:06;;;;;;;33.43;14.90;;;0.10;50.90;;;;;;4892692;29;20464;-86
2022/12/15 08:12:34;;;;;;;32.43;16.40;;;0.10;50.80;;;;;;4888726;29;20493;-86
2022/12/15 08:15:01;;;;;;;25.10;14.50;;;0.20;50.40;;;;;;4891338;29;20456;-87
2022/12/15 08:17:28;;;;;;;28.23;15.03;;;0.30;50.10;;;;;;4908264;29;20494;-86
2022/12/15 08:19:54;;;;;;;31.50;13.10;;;0.40;50.10;;;;;;4927513;29;20471;-87
2022/12/15 08:22:21;;;;;;;32.03;14.37;;;0.40;50.20;;;;;;4923895;29;20454;-84
2022/12/15 08:24:50;;;;;;;30.03;13.10;;;0.50;49.70;;;;;;4890360;29;20466;-85
2022/12/15 08:27:17;;;;;;;26.50;14.80;;;0.40;49.20;;;;;;4899208;29;20455;-87
2022/12/15 08:29:44;;;;;;;25.97;13.40;;;0.40;49.20;;;;;;4896944;29;20447;-85
2022/12/15 08:32:11;;;;;;;22.77;14.70;;;0.50;49.30;;;;;;4885728;29;20447;-86
2022/12/15 08:34:38;;;;;;;24.87;15.33;;;0.60;49.30;;;;;;4891020;29;20482;-85
2022/12/15 08:37:05;;;;;;;23.83;13.60;;;0.60;49.10;;;;;;4885274;29;20454;-86
2022/12/15 08:39:32;;;;;;;34.70;16.47;;;0.50;49.30;;;;;;4914683;29;20486;-86
2022/12/15 08:42:00;;;;;;;29.30;17.00;;;0.50;49.30;;;;;;4902400;29;20465;-87
2022/12/15 08:44:27;;;;;;;30.33;17.60;;;0.50;49.10;;;;;;4890226;29;20486;-87
2022/12/15 08:46:54;;;;;;;28.27;15.37;;;0.60;49.80;;;;;;4874275;29;20469;-87
2022/12/15 08:49:21;;;;;;;35.10;16.73;;;0.60;49.10;;;;;;4919173;29;20446;-87
2022/12/15 08:51:48;;;;;;;37.83;16.40;;;0.70;49.10;;;;;;4887138;29;20446;-86
2022/12/15 08:54:15;;;;;;;26.67;15.07;;;0.70;49.00;;;;;;4903360;29;20568;-86
2022/12/15 08:56:42;;;;;;;39.37;17.33;;;0.50;48.90;;;;;;4887772;29;20543;-86
2022/12/15 08:59:11;;;;;;;26.27;15.27;;;0.60;49.20;;;;;;4925284;29;20473;-86
2022/12/15 09:01:39;;;;;;;28.60;15.80;;;0.70;48.90;;;;;;4882630;29;20563;-85
2022/12/15 09:04:06;;;;;;;45.40;18.03;;;0.60;48.80;;;;;;4900281;29;20518;-86
2022/12/15 09:06:35;;;;;;;40.60;17.23;;;0.70;48.80;;;;;;4902855;29;20452;-87
2022/12/15 09:09:06;;;;;;;41.17;17.77;;;0.70;48.70;;;;;;4887583;29;20456;-87
2022/12/15 09:11:33;;;;;;;31.10;17.07;;;0.70;48.80;;;;;;4893692;29;20462;-86
2022/12/15 09:14:00;;;;;;;23.03;13.80;;;0.70;48.70;;;;;;4908098;29;20473;-87
2022/12/15 09:16:29;;;;;;;25.73;16.57;;;0.80;48.80;;;;;;4932111;29;20454;-86
2022/12/15 09:18:58;;;;;;;33.07;18.27;;;0.80;48.70;;;;;;4915151;29;20483;-87
2022/12/15 09:21:27;;;;;;;40.97;18.20;;;0.80;48.70;;;;;;4877653;29;20510;-86
2022/12/15 09:23:59;;;;;;;33.20;17.00;;;0.80;48.70;;;;;;4899570;29;20552;-85
2022/12/15 09:26:26;;;;;;;31.70;15.93;;;0.70;48.60;;;;;;4885291;29;20473;-86
2022/12/15 09:28:54;;;;;;;31.07;14.47;;;0.80;48.60;;;;;;4912832;29;20474;-86
2022/12/15 09:31:23;;;;;;;24.80;15.30;;;0.80;48.50;;;;;;4907840;29;20475;-86
2022/12/15 09:33:54;;;;;;;27.03;16.47;;;0.70;48.70;;;;;;4897318;29;20533;-85
2022/12/15 09:36:22;;;;;;;31.00;14.07;;;0.70;48.80;;;;;;4924669;29;20822;-86
2022/12/15 09:38:49;;;;;;;35.20;12.33;;;0.60;49.40;;;;;;4915471;29;20519;-86
2022/12/15 09:41:22;;;;;;;26.07;13.53;;;0.60;51.00;;;;;;4900111;29;20463;-86
2022/12/15 09:43:54;;;;;;;30.07;13.43;;;0.70;50.30;;;;;;4909758;29;21027;-86
2022/12/15 09:46:27;;;;;;;31.77;17.30;;;0.80;49.80;;;;;;4881626;29;20474;-86
2022/12/15 09:48:58;;;;;;;36.53;17.60;;;0.80;49.50;;;;;;4897738;29;20459;-86
2022/12/15 09:51:33;;;;;;;51.17;22.60;;;0.70;49.30;;;;;;4901491;29;20463;-86
2022/12/15 09:54:00;;;;;;;41.73;20.00;;;0.50;50.30;;;;;;4906991;29;20561;-86
2022/12/15 09:56:40;;;;;;;28.70;16.60;;;0.40;50.90;;;;;;4917533;29;20479;-85
2022/12/15 09:59:20;;;;;;;73.37;36.37;;;0.30;51.30;;;;;;4891894;29;20578;-85
2022/12/15 10:01:55;;;;;;;28.63;16.80;;;0.60;51.40;;;;;;4891187;29;20463;-86
2022/12/15 10:04:33;;;;;;;38.20;19.20;;;0.80;51.10;;;;;;4916000;29;20498;-85
2022/12/15 10:07:07;;;;;;;25.57;15.27;;;0.90;50.80;;;;;;4918164;29;20458;-86
2022/12/15 10:09:34;;;;;;;25.40;15.97;;;1.10;50.50;;;;;;4907298;29;20540;-86
2022/12/15 10:12:05;;;;;;;37.87;16.53;;;1.00;50.80;;;;;;4903599;29;20462;-86
2022/12/15 10:14:39;;;;;;;34.93;18.83;;;1.10;51.30;;;;;;4913630;29;20826;-86
2022/12/15 10:17:18;;;;;;;32.67;17.77;;;1.30;51.10;;;;;;4884053;29;20677;-86
2022/12/15 10:19:55;;;;;;;31.33;17.53;;;1.40;50.80;;;;;;4900034;29;20870;-85
2022/12/15 10:22:25;;;;;;;44.40;21.17;;;1.40;50.60;;;;;;4907244;29;20470;-86
2022/12/15 10:24:53;;;;;;;29.83;17.93;;;1.40;50.60;;;;;;4900581;29;20489;-86
2022/12/15 10:27:34;;;;;;;35.93;17.80;;;1.50;50.70;;;;;;4917880;29;20822;-86
2022/12/15 10:30:04;;;;;;;37.10;17.83;;;1.40;51.10;;;;;;4905135;29;20447;-86
2022/12/15 10:32:43;;;;;;;30.47;17.47;;;1.30;52.10;;;;;;4881859;29;20490;-86
2022/12/15 10:35:16;;;;;;;30.50;17.67;;;1.20;51.80;;;;;;4912239;29;21006;-86
2022/12/15 10:37:43;;;;;;;34.17;18.70;;;1.40;51.90;;;;;;4916491;29;20452;-86
2022/12/15 10:40:15;;;;;;;28.83;16.10;;;1.50;51.30;;;;;;4887491;29;20822;-86
2022/12/15 10:42:46;;;;;;;32.77;16.10;;;1.60;51.10;;;;;;4907940;29;20455;-86
2022/12/15 10:45:32;;;;;;;29.87;17.10;;;1.60;51.30;;;;;;4916729;29;20819;-86
2022/12/15 10:48:01;;;;;;;25.83;16.47;;;1.70;51.10;;;;;;4898240;29;21088;-86
2022/12/15 10:50:29;;;;;;;38.37;14.90;;;1.80;50.90;;;;;;4874633;29;20543;-87
2022/12/15 10:52:56;;;;;;;32.63;18.10;;;1.80;50.80;;;;;;4929716;29;20479;-87
2022/12/15 10:55:32;;;;;;;32.43;16.53;;;1.90;50.90;;;;;;4888153;29;20463;-86
2022/12/15 10:58:01;;;;;;;46.07;19.47;;;1.90;50.90;;;;;;4930549;29;20478;-86
2022/12/15 11:00:30;;;;;;;26.47;15.33;;;1.90;51.30;;;;;;4886870;29;20463;-87
2022/12/15 11:02:58;;;;;;;36.93;16.30;;;1.80;51.60;;;;;;4889594;29;20476;-86
2022/12/15 11:05:26;;;;;;;29.93;17.17;;;1.70;51.70;;;;;;4903030;29;20879;-87
2022/12/15 11:07:56;;;;;;;24.20;14.00;;;1.70;51.70;;;;;;4905712;29;20448;-86
2022/12/15 11:10:25;;;;;;;30.70;16.00;;;1.60;51.70;;;;;;4885813;29;20466;-86
2022/12/15 11:13:01;;;;;;;34.77;15.40;;;1.60;51.90;;;;;;4891251;29;20837;-86
2022/12/15 11:15:40;;;;;;;33.23;17.30;;;1.60;52.30;;;;;;4914776;29;20960;-86
2022/12/15 11:18:14;;;;;;;27.27;16.13;;;1.70;52.40;;;;;;4894707;29;20950;-87
2022/12/15 11:20:47;;;;;;;27.47;16.07;;;1.80;52.30;;;;;;4922431;29;20462;-86
2022/12/15 11:23:21;;;;;;;33.20;17.73;;;2.00;52.30;;;;;;4922203;29;20483;-86
2022/12/15 11:25:56;;;;;;;36.27;18.80;;;2.10;52.00;;;;;;4916844;29;20461;-85
2022/12/15 11:28:29;;;;;;;35.40;16.57;;;2.30;51.90;;;;;;4882020;29;20451;-84
2022/12/15 11:31:02;;;;;;;31.83;17.20;;;2.40;51.70;;;;;;4905160;29;20451;-85
2022/12/15 11:33:29;;;;;;;35.10;18.33;;;2.40;51.40;;;;;;4906860;29;20482;-85
2022/12/15 11:36:08;;;;;;;38.30;18.53;;;2.50;51.30;;;;;;4898409;29;20465;-85
2022/12/15 11:38:43;;;;;;;34.17;18.33;;;2.40;51.80;;;;;;4884285;29;20470;-85
2022/12/15 11:41:23;;;;;;;36.70;16.57;;;2.50;52.00;;;;;;4915520;29;20459;-86
2022/12/15 11:44:03;;;;;;;32.93;15.80;;;2.70;51.90;;;;;;4926672;28;21088;-86
2022/12/15 11:46:37;;;;;;;51.10;25.80;;;2.70;51.50;;;;;;4889449;29;20466;-87
2022/12/15 11:49:43;;;;;;;38.53;20.03;;;2.80;52.00;;;;;;4908385;29;20503;-87
2022/12/15 11:52:17;;;;;;;62.80;23.57;;;2.50;50.90;;;;;;4881750;29;20825;-86
2022/12/15 11:54:52;;;;;;;59.53;24.00;;;2.30;51.40;;;;;;4913573;29;21159;-85
2022/12/15 11:57:49;;;;;;;71.70;23.70;;;2.30;52.10;;;;;;4889495;29;20983;-86
2022/12/15 12:00:18;;;;;;;29.50;17.63;;;2.50;52.10;;;;;;4889163;29;20859;-86
2022/12/15 12:03:01;;;;;;;31.90;15.90;;;2.50;52.50;;;;;;4896105;29;20463;-87
2022/12/15 12:05:50;;;;;;;44.90;18.60;;;2.50;52.10;;;;;;4929906;29;20460;-86
2022/12/15 12:08:28;;;;;;;34.87;15.80;;;2.60;52.80;;;;;;4912251;29;20460;-87
2022/12/15 12:11:01;;;;;;;43.40;20.97;;;2.60;52.10;;;;;;4915655;29;20462;-86
2022/12/15 12:13:35;;;;;;;29.70;16.47;;;2.20;53.80;;;;;;4883928;29;20475;-86
2022/12/15 12:16:11;;;;;;;32.90;14.67;;;2.40;53.40;;;;;;4927814;29;20462;-85
2022/12/15 12:18:40;;;;;;;28.27;16.60;;;2.60;53.20;;;;;;4892250;29;20490;-86
2022/12/15 12:21:10;;;;;;;31.80;14.97;;;2.70;52.70;;;;;;4890400;29;20463;-87
2022/12/15 12:23:42;;;;;;;33.93;18.03;;;2.90;52.50;;;;;;4917249;29;20482;-87
2022/12/15 12:26:19;;;;;;;26.93;15.97;;;2.90;52.10;;;;;;4885299;29;20447;-86
2022/12/15 12:28:49;;;;;;;27.13;14.23;;;3.00;52.30;;;;;;4915638;29;20449;-86
2022/12/15 12:31:26;;;;;;;32.33;15.10;;;3.20;52.30;;;;;;4909949;29;20950;-85
2022/12/15 12:33:58;;;;;;;24.57;13.43;;;3.10;52.10;;;;;;4894529;29;20543;-86
2022/12/15 12:36:25;;;;;;;19.80;14.00;;;3.30;52.30;;;;;;4884222;29;20973;-84
2022/12/15 12:38:54;;;;;;;25.57;14.77;;;3.60;52.00;;;;;;4924547;29;20490;-87
2022/12/15 12:41:30;;;;;;;32.03;14.30;;;3.80;51.90;;;;;;4905962;29;20997;-86
2022/12/15 12:44:04;;;;;;;21.57;13.30;;;3.90;51.20;;;;;;4920137;29;20510;-85
2022/12/15 12:46:34;;;;;;;24.37;13.90;;;4.00;51.10;;;;;;4892022;29;20478;-83
2022/12/15 12:49:06;;;;;;;31.70;17.30;;;4.10;51.00;;;;;;4893810;29;20457;-84
2022/12/15 12:51:34;;;;;;;29.67;15.87;;;4.10;50.80;;;;;;4925563;29;20476;-84
2022/12/15 12:54:02;;;;;;;31.37;14.73;;;4.10;51.20;;;;;;4932412;29;20482;-84
2022/12/15 12:56:40;;;;;;;23.60;14.10;;;4.10;50.60;;;;;;4900980;29;20459;-84
2022/12/15 12:59:35;;;;;;;28.83;12.70;;;3.90;50.10;;;;;;4909418;29;20475;-84
2022/12/15 13:02:45;;;;;;;39.60;17.23;;;3.80;50.00;;;;;;4901013;29;20458;-83
2022/12/15 13:05:28;;;;;;;34.87;17.67;;;3.60;51.10;;;;;;4902454;29;20462;-84
2022/12/15 13:07:56;;;;;;;50.80;21.40;;;3.60;51.10;;;;;;4931661;29;20474;-83
2022/12/15 13:10:25;;;;;;;25.27;14.30;;;3.70;51.20;;;;;;4914807;29;20450;-84
2022/12/15 13:12:54;;;;;;;25.60;13.00;;;3.60;51.00;;;;;;4900706;29;20466;-84
2022/12/15 13:15:36;;;;;;;25.73;14.33;;;3.60;51.10;;;;;;4870413;29;20460;-84
2022/12/15 13:18:07;;;;;;;32.93;17.77;;;3.80;51.20;;;;;;4888340;29;20448;-84
2022/12/15 13:20:35;;;;;;;33.47;17.13;;;3.90;51.10;;;;;;4908556;29;20556;-84
2022/12/15 13:23:39;;;;;;;24.70;13.90;;;3.90;50.80;;;;;;4898119;29;20474;-84
2022/12/15 13:26:14;;;;;;;43.20;19.10;;;3.80;50.50;;;;;;4904200;29;20451;-84
2022/12/15 13:28:48;;;;;;;32.87;15.60;;;3.50;51.00;;;;;;4915888;29;20459;-82
2022/12/15 13:31:30;;;;;;;37.30;19.40;;;3.50;51.20;;;;;;4893242;29;21167;-84
2022/12/15 13:34:26;;;;;;;48.30;23.80;;;3.50;51.50;;;;;;4889061;29;20484;-85
2022/12/15 13:37:02;;;;;;;33.67;16.97;;;3.50;51.50;;;;;;4885252;29;20499;-84
2022/12/15 13:39:48;;;;;;;77.13;24.93;;;3.60;51.30;;;;;;4915723;29;20478;-84
2022/12/15 13:42:35;;;;;;;35.30;18.73;;;3.50;51.00;;;;;;4908448;29;20852;-84
2022/12/15 13:45:35;;;;;;;37.23;18.40;;;3.40;51.30;;;;;;4891578;29;20454;-85
2022/12/15 13:48:12;;;;;;;50.73;24.07;;;3.50;51.50;;;;;;4883687;29;20460;-85
2022/12/15 13:50:46;;;;;;;37.07;20.83;;;3.40;51.60;;;;;;4892130;29;20455;-83
2022/12/15 13:53:20;;;;;;;38.10;19.30;;;3.60;51.50;;;;;;4885845;29;20475;-84
2022/12/15 13:56:03;;;;;;;33.70;17.97;;;3.70;51.50;;;;;;4903853;29;20464;-84
2022/12/15 13:58:39;;;;;;;47.53;21.90;;;3.80;51.30;;;;;;4899894;29;20549;-84
2022/12/15 14:01:19;;;;;;;59.10;22.10;;;3.80;50.90;;;;;;4914390;29;21026;-82
2022/12/15 14:04:02;;;;;;;52.40;20.80;;;3.90;50.80;;;;;;4907781;29;20475;-84
2022/12/15 14:06:35;;;;;;;51.03;23.53;;;4.00;51.00;;;;;;4914559;29;20462;-84
2022/12/15 14:09:02;;;;;;;82.27;31.93;;;4.00;50.90;;;;;;4898799;29;20478;-87
2022/12/15 14:11:33;;;;;;;88.33;31.77;;;4.00;50.80;;;;;;4914224;29;21019;-87
2022/12/15 14:14:01;;;;;;;53.30;22.83;;;3.90;50.50;;;;;;4900981;29;22117;-86
2022/12/15 14:16:33;;;;;;;79.93;27.93;;;3.90;50.70;;;;;;4901491;29;20466;-86
2022/12/15 14:19:10;;;;;;;36.10;17.97;;;3.70;50.60;;;;;;4912613;29;20487;-84
2022/12/15 14:21:37;;;;;;;32.20;15.83;;;3.70;50.90;;;;;;4909709;29;20452;-86
2022/12/15 14:24:20;;;;;;;39.13;17.57;;;3.60;50.80;;;;;;4885198;29;20498;-85
2022/12/15 14:26:47;;;;;;;34.53;15.67;;;3.50;51.10;;;;;;4885555;29;20982;-84
2022/12/15 14:29:14;;;;;;;29.27;15.80;;;3.50;51.30;;;;;;4916685;29;20465;-85
2022/12/15 14:31:46;;;;;;;36.10;19.33;;;3.50;51.30;;;;;;4888980;29;20458;-84
2022/12/15 14:34:18;;;;;;;35.27;16.40;;;3.50;51.30;;;;;;4892334;29;20482;-86
2022/12/15 14:36:49;;;;;;;42.07;18.23;;;3.60;51.20;;;;;;4918862;29;20982;-86
2022/12/15 14:39:21;;;;;;;42.67;18.97;;;3.60;51.10;;;;;;4933386;28;20561;-86
2022/12/15 14:41:50;;;;;;;33.80;18.47;;;3.60;51.00;;;;;;4915646;29;20983;-86
2022/12/15 14:44:27;;;;;;;32.70;16.70;;;3.60;51.10;;;;;;4923463;29;20472;-85
2022/12/15 14:46:56;;;;;;;51.37;21.20;;;3.60;51.10;;;;;;4890608;29;20452;-86
2022/12/15 14:49:26;;;;;;;31.23;15.70;;;3.50;51.00;;;;;;4904265;29;20827;-86
2022/12/15 14:51:57;;;;;;;37.23;17.07;;;3.50;51.00;;;;;;4908057;29;20455;-86
2022/12/15 14:54:34;;;;;;;29.23;18.00;;;3.20;51.20;;;;;;4906385;29;20475;-85
2022/12/15 14:57:11;;;;;;;36.70;20.77;;;3.00;52.00;;;;;;4928877;28;21903;-86
2022/12/15 14:59:41;;;;;;;37.13;16.77;;;3.00;51.90;;;;;;4900386;29;20479;-86
2022/12/15 15:02:18;;;;;;;33.10;17.30;;;3.10;52.70;;;;;;4918039;29;21168;-86
2022/12/15 15:04:56;;;;;;;36.97;18.17;;;3.10;52.70;;;;;;4891919;29;20498;-87
2022/12/15 15:07:24;;;;;;;28.93;15.90;;;3.10;52.00;;;;;;4903206;29;20459;-86
2022/12/15 15:09:51;;;;;;;22.73;14.70;;;3.00;51.80;;;;;;4873891;29;20969;-85
2022/12/15 15:12:19;;;;;;;24.87;14.30;;;2.80;51.80;;;;;;4884985;29;20486;-86
2022/12/15 15:14:49;;;;;;;29.60;14.97;;;2.50;52.40;;;;;;4902062;29;20851;-85